Time;durP1;ratioP1;P1;durP2;ratioP2;P2;SDS_P1;SDS_P2;PMS_P1;PMS_P2;Temp;Humidity;BMP_temperature;BMP_pressure;BME280_temperature;BME280_humidity;BME280_pressure;Samples;Min_cycle;Max_cycle;Signal;HPM_P1;HPM_P2
2021/01/09 00:01:17;;;;;;;;;;;;;;;;;;5092543;28;19904;-78
2021/01/09 00:03:43;;;;;;;;;;;;;;;;;;5092834;28;20357;-78
2021/01/09 00:06:09;;;;;;;;;;;;;;;;;;5092434;28;19900;-77
2021/01/09 00:08:35;;;;;;;;;;;;;;;;;;5092672;28;19908;-78
2021/01/09 00:11:01;;;;;;;;;;;;;;;;;;5092504;28;19904;-78
2021/01/09 00:13:27;;;;;;;;;;;;;;;;;;5092698;28;19900;-78
2021/01/09 00:15:53;;;;;;;;;;;;;;;;;;5092695;28;19993;-77
2021/01/09 00:18:19;;;;;;;;;;;;;;;;;;5092237;28;19912;-77
2021/01/09 00:20:44;;;;;;;;;;;;;;;;;;5092477;28;19915;-77
2021/01/09 00:23:10;;;;;;;;;;;;;;;;;;5092274;28;19947;-77
2021/01/09 00:25:36;;;;;;;;;;;;;;;;;;5092581;28;19908;-78
2021/01/09 00:28:02;;;;;;;;;;;;;;;;;;5092462;28;19908;-78
2021/01/09 00:30:28;;;;;;;;;;;;;;;;;;5092327;28;19911;-77
2021/01/09 00:32:54;;;;;;;;;;;;;;;;;;5092521;28;19995;-77
2021/01/09 00:35:20;;;;;;;;;;;;;;;;;;5092204;28;19904;-77
2021/01/09 00:37:46;;;;;;;;;;;;;;;;;;5092554;28;19918;-77
2021/01/09 00:40:12;;;;;;;;;;;;;;;;;;5092215;28;19904;-79
2021/01/09 00:42:38;;;;;;;;;;;;;;;;;;5092505;28;19911;-78
2021/01/09 00:45:04;;;;;;;;;;;;;;;;;;5092651;28;19915;-77
2021/01/09 00:47:30;;;;;;;;;;;;;;;;;;5092049;28;20279;-82
2021/01/09 00:49:56;;;;;;;;;;;;;;;;;;5095971;28;20286;-78
2021/01/09 00:52:22;;;;;;;;;;;;;;;;;;5096004;28;19998;-77
2021/01/09 00:54:48;;;;;;;;;;;;;;;;;;5096188;28;19912;-76
2021/01/09 00:57:14;;;;;;;;;;;;;;;;;;5096271;28;19919;-79
2021/01/09 00:59:40;;;;;;;;;;;;;;;;;;5096168;28;19904;-79
2021/01/09 01:02:06;;;;;;;;;;;;;;;;;;5096258;28;20002;-77
2021/01/09 01:04:31;;;;;;;;;;;;;;;;;;5095799;28;19912;-78
2021/01/09 01:06:57;;;;;;;;;;;;;;;;;;5096146;28;19911;-77
2021/01/09 01:09:23;;;;;;;;;;;;;;;;;;5095687;28;19916;-78
2021/01/09 01:11:49;;;;;;;;;;;;;;;;;;5096076;28;19930;-77
2021/01/09 01:14:15;;;;;;;;;;;;;;;;;;5094720;28;19904;-78
2021/01/09 01:16:43;;;;;;;;;;;;;;;;;;5095612;28;19919;-76
2021/01/09 01:19:09;;;;;;;;;;;;;;;;;;5095957;28;19951;-78
2021/01/09 01:21:35;;;;;;;;;;;;;;;;;;5095504;28;19922;-78
2021/01/09 01:24:01;;;;;;;;;;;;;;;;;;5095944;28;19908;-79
2021/01/09 01:26:27;;;;;;;;;;;;;;;;;;5095570;28;19904;-76
2021/01/09 01:28:53;;;;;;;;;;;;;;;;;;5095813;28;19904;-78
2021/01/09 01:31:19;;;;;;;;;;;;;;;;;;5095573;28;19949;-81
2021/01/09 01:33:45;;;;;;;;;;;;;;;;;;5095280;28;19911;-78
2021/01/09 01:36:11;;;;;;;;;;;;;;;;;;5095703;28;19998;-77
2021/01/09 01:38:37;;;;;;;;;;;;;;;;;;5095284;28;19999;-78
2021/01/09 01:41:03;;;;;;;;;;;;;;;;;;5095591;28;19954;-78
2021/01/09 01:43:29;;;;;;;;;;;;;;;;;;5095548;28;19904;-78
2021/01/09 01:45:55;;;;;;;;;;;;;;;;;;5095305;28;19977;-79
2021/01/09 01:48:21;;;;;;;;;;;;;;;;;;5095203;28;19904;-76
2021/01/09 01:50:47;;;;;;;;;;;;;;;;;;5093874;28;19904;-78
2021/01/09 01:53:13;;;;;;;;;;;;;;;;;;5095468;28;19998;-78
2021/01/09 01:55:39;;;;;;;;;;;;;;;;;;5095120;28;20378;-80
2021/01/09 01:58:05;;;;;;;;;;;;;;;;;;5095275;28;19984;-78
2021/01/09 02:00:30;;;;;;;;;;;;;;;;;;5094245;28;19911;-79
2021/01/09 02:02:56;;;;;;;;;;;;;;;;;;5094787;28;19904;-79
2021/01/09 02:05:22;;;;;;;;;;;;;;;;;;5094978;28;19904;-77
2021/01/09 02:07:48;;;;;;;;;;;;;;;;;;5094835;28;19904;-77
2021/01/09 02:10:14;;;;;;;;;;;;;;;;;;5094804;28;19920;-78
2021/01/09 02:12:40;;;;;;;;;;;;;;;;;;5094909;28;19904;-76
2021/01/09 02:15:06;;;;;;;;;;;;;;;;;;5094776;28;19926;-77
2021/01/09 02:17:33;;;;;;;;;;;;;;;;;;5094675;28;19919;-76
2021/01/09 02:19:59;;;;;;;;;;;;;;;;;;5094631;28;19944;-77
2021/01/09 02:22:25;;;;;;;;;;;;;;;;;;5094722;28;19957;-78
2021/01/09 02:24:51;;;;;;;;;;;;;;;;;;5094520;28;19908;-76
2021/01/09 02:27:17;;;;;;;;;;;;;;;;;;5094479;28;19905;-79
2021/01/09 02:29:42;;;;;;;;;;;;;;;;;;5094617;28;19910;-77
2021/01/09 02:32:08;;;;;;;;;;;;;;;;;;5094191;28;19911;-78
2021/01/09 02:34:34;;;;;;;;;;;;;;;;;;5094351;28;19908;-78
2021/01/09 02:37:00;;;;;;;;;;;;;;;;;;5094092;28;20433;-80
2021/01/09 02:39:26;;;;;;;;;;;;;;;;;;5094304;28;20247;-77
2021/01/09 02:41:52;;;;;;;;;;;;;;;;;;5094351;28;19911;-79
2021/01/09 02:44:18;;;;;;;;;;;;;;;;;;5094241;28;19911;-79
2021/01/09 02:46:44;;;;;;;;;;;;;;;;;;5094093;28;20389;-77
2021/01/09 02:49:10;;;;;;;;;;;;;;;;;;5093816;28;19904;-77
2021/01/09 02:51:36;;;;;;;;;;;;;;;;;;5094018;28;19911;-77
2021/01/09 02:54:02;;;;;;;;;;;;;;;;;;5093987;28;19905;-77
2021/01/09 02:56:28;;;;;;;;;;;;;;;;;;5094014;28;19929;-77
2021/01/09 02:58:54;;;;;;;;;;;;;;;;;;5094013;28;20378;-77
2021/01/09 03:01:20;;;;;;;;;;;;;;;;;;5093525;28;19935;-78
2021/01/09 03:03:46;;;;;;;;;;;;;;;;;;5093926;28;19918;-77
2021/01/09 03:06:12;;;;;;;;;;;;;;;;;;5093793;28;19907;-78
2021/01/09 03:08:38;;;;;;;;;;;;;;;;;;5093581;28;19907;-77
2021/01/09 03:11:04;;;;;;;;;;;;;;;;;;5093839;28;19900;-80
2021/01/09 03:13:30;;;;;;;;;;;;;;;;;;5093503;28;19911;-76
2021/01/09 03:15:56;;;;;;;;;;;;;;;;;;5093657;28;19904;-76
2021/01/09 03:18:21;;;;;;;;;;;;;;;;;;5093370;28;20355;-77
2021/01/09 03:20:47;;;;;;;;;;;;;;;;;;5093612;28;19957;-78
2021/01/09 03:23:13;;;;;;;;;;;;;;;;;;5093524;28;19991;-77
2021/01/09 03:25:39;;;;;;;;;;;;;;;;;;5093582;28;19918;-77
2021/01/09 03:28:05;;;;;;;;;;;;;;;;;;5093448;28;19951;-77
2021/01/09 03:30:31;;;;;;;;;;;;;;;;;;5093001;28;19911;-77
2021/01/09 03:32:57;;;;;;;;;;;;;;;;;;5093463;28;19904;-80
2021/01/09 03:35:23;;;;;;;;;;;;;;;;;;5093246;28;19904;-82
2021/01/09 03:37:49;;;;;;;;;;;;;;;;;;5093232;28;19937;-77
2021/01/09 03:40:15;;;;;;;;;;;;;;;;;;5093476;28;19908;-77
2021/01/09 03:42:41;;;;;;;;;;;;;;;;;;5093130;28;19910;-78
2021/01/09 03:45:07;;;;;;;;;;;;;;;;;;5093364;28;20638;-78
2021/01/09 03:47:33;;;;;;;;;;;;;;;;;;5092981;28;19904;-77
2021/01/09 03:49:59;;;;;;;;;;;;;;;;;;5093159;28;19910;-80
2021/01/09 03:52:25;;;;;;;;;;;;;;;;;;5091796;28;20320;-77
2021/01/09 03:54:51;;;;;;;;;;;;;;;;;;5093257;28;19904;-80
2021/01/09 03:57:17;;;;;;;;;;;;;;;;;;5092967;28;19938;-77
2021/01/09 03:59:43;;;;;;;;;;;;;;;;;;5092708;28;19947;-78
2021/01/09 04:02:09;;;;;;;;;;;;;;;;;;5093067;28;19900;-77
2021/01/09 04:04:35;;;;;;;;;;;;;;;;;;5092728;28;19911;-79
2021/01/09 04:07:01;;;;;;;;;;;;;;;;;;5092813;28;20010;-77
2021/01/09 04:09:27;;;;;;;;;;;;;;;;;;5091542;28;19922;-78
2021/01/09 04:11:53;;;;;;;;;;;;;;;;;;5092802;28;19904;-79
2021/01/09 04:14:19;;;;;;;;;;;;;;;;;;5091770;28;20375;-77
2021/01/09 04:16:45;;;;;;;;;;;;;;;;;;5092494;28;19943;-78
2021/01/09 04:19:11;;;;;;;;;;;;;;;;;;5092724;28;19904;-78
2021/01/09 04:21:37;;;;;;;;;;;;;;;;;;5092778;28;19991;-80
2021/01/09 04:24:03;;;;;;;;;;;;;;;;;;5097460;28;19965;-78
2021/01/09 04:26:28;;;;;;;;;;;;;;;;;;5099392;28;20412;-76
2021/01/09 04:28:54;;;;;;;;;;;;;;;;;;5099166;28;20312;-76
2021/01/09 04:31:20;;;;;;;;;;;;;;;;;;5099501;28;20327;-77
2021/01/09 04:33:46;;;;;;;;;;;;;;;;;;5099013;28;19911;-77
2021/01/09 04:36:12;;;;;;;;;;;;;;;;;;5099434;28;19904;-78
2021/01/09 04:38:38;;;;;;;;;;;;;;;;;;5099274;28;20317;-76
2021/01/09 04:41:04;;;;;;;;;;;;;;;;;;5099189;28;19911;-76
2021/01/09 04:43:30;;;;;;;;;;;;;;;;;;5099268;28;20347;-78
2021/01/09 04:45:56;;;;;;;;;;;;;;;;;;5099023;28;19904;-78
2021/01/09 04:48:22;;;;;;;;;;;;;;;;;;5099237;28;19904;-77
2021/01/09 04:50:48;;;;;;;;;;;;;;;;;;5098876;28;20005;-79
2021/01/09 04:53:14;;;;;;;;;;;;;;;;;;5099138;28;19904;-77
2021/01/09 04:55:40;;;;;;;;;;;;;;;;;;5098999;28;20343;-77
2021/01/09 04:58:06;;;;;;;;;;;;;;;;;;5098988;28;20451;-78
2021/01/09 05:00:32;;;;;;;;;;;;;;;;;;5099171;28;20324;-78
2021/01/09 05:02:58;;;;;;;;;;;;;;;;;;5098777;28;19926;-78
2021/01/09 05:05:24;;;;;;;;;;;;;;;;;;5099035;28;19911;-79
2021/01/09 05:07:49;;;;;;;;;;;;;;;;;;5099024;28;20007;-82
2021/01/09 05:10:15;;;;;;;;;;;;;;;;;;5098899;28;20275;-77
2021/01/09 05:12:41;;;;;;;;;;;;;;;;;;5098979;28;19949;-78
2021/01/09 05:15:07;;;;;;;;;;;;;;;;;;5098693;28;19904;-77
2021/01/09 05:17:33;;;;;;;;;;;;;;;;;;5098936;28;20282;-76
2021/01/09 05:19:59;;;;;;;;;;;;;;;;;;5098883;28;19904;-77
2021/01/09 05:22:25;;;;;;;;;;;;;;;;;;5098804;28;19999;-80
2021/01/09 05:24:52;;;;;;;;;;;;;;;;;;5098842;28;19919;-77
2021/01/09 05:27:18;;;;;;;;;;;;;;;;;;5098644;28;19904;-79
2021/01/09 05:29:44;;;;;;;;;;;;;;;;;;5098832;28;20366;-77
2021/01/09 05:32:10;;;;;;;;;;;;;;;;;;5098675;28;20311;-77
2021/01/09 05:34:36;;;;;;;;;;;;;;;;;;5096531;28;19904;-76
2021/01/09 05:37:02;;;;;;;;;;;;;;;;;;5095334;28;19953;-76
2021/01/09 05:39:28;;;;;;;;;;;;;;;;;;5095469;28;19904;-79
2021/01/09 05:41:54;;;;;;;;;;;;;;;;;;5095522;28;19907;-76
2021/01/09 05:44:19;;;;;;;;;;;;;;;;;;5095210;28;19911;-77
2021/01/09 05:46:45;;;;;;;;;;;;;;;;;;5095344;28;19939;-80
2021/01/09 05:49:11;;;;;;;;;;;;;;;;;;5095297;28;19904;-75
2021/01/09 05:51:40;;;;;;;;;;;;;;;;;;5095230;28;19930;-77
2021/01/09 05:54:06;;;;;;;;;;;;;;;;;;5095130;28;19911;-76
2021/01/09 05:56:32;;;;;;;;;;;;;;;;;;5095139;28;20279;-76
2021/01/09 05:58:58;;;;;;;;;;;;;;;;;;5095214;28;20252;-76
2021/01/09 06:01:24;;;;;;;;;;;;;;;;;;5094951;28;20027;-76
2021/01/09 06:03:50;;;;;;;;;;;;;;;;;;5095073;28;19904;-77
2021/01/09 06:06:16;;;;;;;;;;;;;;;;;;5094988;28;19904;-76
2021/01/09 06:08:43;;;;;;;;;;;;;;;;;;5094590;28;20420;-79
2021/01/09 06:11:09;;;;;;;;;;;;;;;;;;5095053;28;19907;-77
2021/01/09 06:13:35;;;;;;;;;;;;;;;;;;5094826;28;19943;-77
2021/01/09 06:16:01;;;;;;;;;;;;;;;;;;5094882;28;20434;-76
2021/01/09 06:18:27;;;;;;;;;;;;;;;;;;5094583;28;20006;-79
2021/01/09 06:20:53;;;;;;;;;;;;;;;;;;5094732;28;19953;-76
2021/01/09 06:23:19;;;;;;;;;;;;;;;;;;5094697;28;20375;-77
2021/01/09 06:25:45;;;;;;;;;;;;;;;;;;5094566;28;19908;-76
2021/01/09 06:28:11;;;;;;;;;;;;;;;;;;5094586;28;19966;-78
2021/01/09 06:30:37;;;;;;;;;;;;;;;;;;5093910;28;19904;-76
2021/01/09 06:33:03;;;;;;;;;;;;;;;;;;5095204;28;19915;-75
2021/01/09 06:35:29;;;;;;;;;;;;;;;;;;5095454;28;20414;-81
2021/01/09 06:37:55;;;;;;;;;;;;;;;;;;5095324;28;19916;-76
2021/01/09 06:42:47;;;;;;;;;;;;;;;;;;5095249;28;19904;-77
2021/01/09 06:45:13;;;;;;;;;;;;;;;;;;5095472;28;20376;-77
2021/01/09 06:47:39;;;;;;;;;;;;;;;;;;5095081;28;19911;-78
2021/01/09 06:50:05;;;;;;;;;;;;;;;;;;5095444;28;19904;-78
2021/01/09 06:52:30;;;;;;;;;;;;;;;;;;5093989;28;20007;-77
2021/01/09 06:54:56;;;;;;;;;;;;;;;;;;5095296;28;19926;-77
2021/01/09 06:57:22;;;;;;;;;;;;;;;;;;5095170;28;20351;-77
2021/01/09 06:59:48;;;;;;;;;;;;;;;;;;5095235;28;20414;-76
2021/01/09 07:02:14;;;;;;;;;;;;;;;;;;5095015;28;20271;-79
2021/01/09 07:04:40;;;;;;;;;;;;;;;;;;5095295;28;19918;-77
2021/01/09 07:07:06;;;;;;;;;;;;;;;;;;5094504;28;19903;-78
2021/01/09 07:09:32;;;;;;;;;;;;;;;;;;5094680;28;19968;-76
2021/01/09 07:11:58;;;;;;;;;;;;;;;;;;5094692;28;19904;-79
2021/01/09 07:14:24;;;;;;;;;;;;;;;;;;5093373;28;19904;-80
2021/01/09 07:16:50;;;;;;;;;;;;;;;;;;5094538;28;19914;-78
2021/01/09 07:19:16;;;;;;;;;;;;;;;;;;5094704;28;20359;-77
2021/01/09 07:21:42;;;;;;;;;;;;;;;;;;5094535;28;20282;-75
2021/01/09 07:24:08;;;;;;;;;;;;;;;;;;5094568;28;20037;-77
2021/01/09 07:26:34;;;;;;;;;;;;;;;;;;5094591;28;19904;-77
2021/01/09 07:29:00;;;;;;;;;;;;;;;;;;5094619;28;19911;-75
2021/01/09 07:31:25;;;;;;;;;;;;;;;;;;5093234;28;19900;-75
2021/01/09 07:33:51;;;;;;;;;;;;;;;;;;5092650;28;19904;-75
2021/01/09 07:36:17;;;;;;;;;;;;;;;;;;5092419;28;19911;-78
2021/01/09 07:38:43;;;;;;;;;;;;;;;;;;5093336;28;19916;-76
2021/01/09 07:41:09;;;;;;;;;;;;;;;;;;5093506;28;20002;-78
2021/01/09 07:43:35;;;;;;;;;;;;;;;;;;5092833;28;19908;-81
2021/01/09 07:46:01;;;;;;;;;;;;;;;;;;5092127;28;20042;-78
2021/01/09 07:48:27;;;;;;;;;;;;;;;;;;5093181;28;19930;-77
2021/01/09 07:50:53;;;;;;;;;;;;;;;;;;5092744;28;19912;-77
2021/01/09 07:53:19;;;;;;;;;;;;;;;;;;5093228;28;19904;-77
2021/01/09 07:55:45;;;;;;;;;;;;;;;;;;5092723;28;20060;-77
2021/01/09 07:58:11;;;;;;;;;;;;;;;;;;5092296;28;19912;-79
2021/01/09 08:00:38;;;;;;;;;;;;;;;;;;5092705;28;19904;-78
2021/01/09 08:03:04;;;;;;;;;;;;;;;;;;5093252;28;19991;-79
2021/01/09 08:05:29;;;;;;;;;;;;;;;;;;5093834;28;19947;-76
2021/01/09 08:07:56;;;;;;;;;;;;;;;;;;5093844;28;19904;-76
2021/01/09 08:10:23;;;;;;;;;;;;;;;;;;5091179;28;19916;-77
2021/01/09 08:12:49;;;;;;;;;;;;;;;;;;5092560;28;19908;-77
2021/01/09 08:15:15;;;;;;;;;;;;;;;;;;5093033;28;19904;-76
2021/01/09 08:17:41;;;;;;;;;;;;;;;;;;5092493;28;19919;-76
2021/01/09 08:20:07;;;;;;;;;;;;;;;;;;5092750;28;19951;-77
2021/01/09 08:22:33;;;;;;;;;;;;;;;;;;5092877;28;19908;-77
2021/01/09 08:24:59;;;;;;;;;;;;;;;;;;5092501;28;19933;-77
2021/01/09 08:27:25;;;;;;;;;;;;;;;;;;5092803;28;20287;-77
2021/01/09 08:29:51;;;;;;;;;;;;;;;;;;5092375;28;19904;-76
2021/01/09 08:32:17;;;;;;;;;;;;;;;;;;5091387;28;19904;-76
2021/01/09 08:34:43;;;;;;;;;;;;;;;;;;5092165;28;19904;-77
2021/01/09 08:37:09;;;;;;;;;;;;;;;;;;5092636;28;19918;-76
2021/01/09 08:39:35;;;;;;;;;;;;;;;;;;5092365;28;19946;-75
2021/01/09 08:42:01;;;;;;;;;;;;;;;;;;5092587;28;20083;-79
2021/01/09 08:44:27;;;;;;;;;;;;;;;;;;5092766;28;20469;-79
2021/01/09 08:46:53;;;;;;;;;;;;;;;;;;5092218;28;20282;-77
2021/01/09 08:49:19;;;;;;;;;;;;;;;;;;5092806;28;19908;-79
2021/01/09 08:51:45;;;;;;;;;;;;;;;;;;5093264;28;19970;-78
2021/01/09 08:54:14;;;;;;;;;;;;;;;;;;5091218;28;19908;-77
2021/01/09 08:56:40;;;;;;;;;;;;;;;;;;5092175;28;19930;-77
2021/01/09 08:59:08;;;;;;;;;;;;;;;;;;5092253;28;20362;-77
2021/01/09 09:01:34;;;;;;;;;;;;;;;;;;5092196;28;19989;-77
2021/01/09 09:04:00;;;;;;;;;;;;;;;;;;5092304;28;20346;-76
2021/01/09 09:06:26;;;;;;;;;;;;;;;;;;5092364;28;20269;-76
2021/01/09 09:08:52;;;;;;;;;;;;;;;;;;5092015;28;20313;-77
2021/01/09 09:11:18;;;;;;;;;;;;;;;;;;5096201;28;19943;-76
2021/01/09 09:13:44;;;;;;;;;;;;;;;;;;5096070;28;19908;-76
2021/01/09 09:16:10;;;;;;;;;;;;;;;;;;5095812;28;19904;-75
2021/01/09 09:18:36;;;;;;;;;;;;;;;;;;5095989;28;19969;-77
2021/01/09 09:21:02;;;;;;;;;;;;;;;;;;5095910;28;20351;-77
2021/01/09 09:23:28;;;;;;;;;;;;;;;;;;5095929;28;19908;-77
2021/01/09 09:25:54;;;;;;;;;;;;;;;;;;5095768;28;19931;-77
2021/01/09 09:28:20;;;;;;;;;;;;;;;;;;5095912;28;19911;-77
2021/01/09 09:30:46;;;;;;;;;;;;;;;;;;5095602;28;19904;-77
2021/01/09 09:33:12;;;;;;;;;;;;;;;;;;5095597;28;20028;-76
2021/01/09 09:35:38;;;;;;;;;;;;;;;;;;5094397;28;19904;-76
2021/01/09 09:38:04;;;;;;;;;;;;;;;;;;5095469;28;19912;-77
2021/01/09 09:40:30;;;;;;;;;;;;;;;;;;5095282;28;19908;-77
2021/01/09 09:42:56;;;;;;;;;;;;;;;;;;5095572;28;19904;-77
2021/01/09 09:45:22;;;;;;;;;;;;;;;;;;5095384;28;20351;-76
2021/01/09 09:47:48;;;;;;;;;;;;;;;;;;5095884;28;20302;-76
2021/01/09 09:50:14;;;;;;;;;;;;;;;;;;5096609;28;19904;-77
2021/01/09 09:52:40;;;;;;;;;;;;;;;;;;5096473;28;19927;-77
2021/01/09 09:55:06;;;;;;;;;;;;;;;;;;5096364;28;19927;-78
2021/01/09 09:57:32;;;;;;;;;;;;;;;;;;5096443;28;20363;-78
2021/01/09 09:59:57;;;;;;;;;;;;;;;;;;5096132;28;20404;-77
2021/01/09 10:02:23;;;;;;;;;;;;;;;;;;5096518;28;19904;-77
2021/01/09 10:04:49;;;;;;;;;;;;;;;;;;5096264;28;19911;-79
2021/01/09 10:07:15;;;;;;;;;;;;;;;;;;5096390;28;20359;-77
2021/01/09 10:09:41;;;;;;;;;;;;;;;;;;5095847;28;20278;-81
2021/01/09 10:12:07;;;;;;;;;;;;;;;;;;5096086;28;20313;-78
2021/01/09 10:14:36;;;;;;;;;;;;;;;;;;5095832;28;19904;-77
2021/01/09 10:17:02;;;;;;;;;;;;;;;;;;5095801;28;19912;-78
2021/01/09 10:19:28;;;;;;;;;;;;;;;;;;5095939;28;19999;-77
2021/01/09 10:21:54;;;;;;;;;;;;;;;;;;5095238;28;20022;-79
2021/01/09 10:24:20;;;;;;;;;;;;;;;;;;5095739;28;19908;-76
2021/01/09 10:26:46;;;;;;;;;;;;;;;;;;5095869;28;19908;-77
2021/01/09 10:29:11;;;;;;;;;;;;;;;;;;5095727;28;19904;-77
2021/01/09 10:31:37;;;;;;;;;;;;;;;;;;5095759;28;19908;-79
2021/01/09 10:34:03;;;;;;;;;;;;;;;;;;5095683;28;19904;-77
2021/01/09 10:36:29;;;;;;;;;;;;;;;;;;5094222;28;19926;-76
2021/01/09 10:38:55;;;;;;;;;;;;;;;;;;5095553;28;19915;-76
2021/01/09 10:41:21;;;;;;;;;;;;;;;;;;5095467;28;19911;-76
2021/01/09 10:43:47;;;;;;;;;;;;;;;;;;5095436;28;19904;-76
2021/01/09 10:46:13;;;;;;;;;;;;;;;;;;5095418;28;20377;-77
2021/01/09 10:48:39;;;;;;;;;;;;;;;;;;5095252;28;19908;-78
2021/01/09 10:51:05;;;;;;;;;;;;;;;;;;5095364;28;19908;-77
2021/01/09 10:53:31;;;;;;;;;;;;;;;;;;5093912;28;19911;-77
2021/01/09 10:55:57;;;;;;;;;;;;;;;;;;5095087;28;19904;-77
2021/01/09 10:58:23;;;;;;;;;;;;;;;;;;5094943;28;19912;-78
2021/01/09 11:00:49;;;;;;;;;;;;;;;;;;5095075;28;19904;-77
2021/01/09 11:03:15;;;;;;;;;;;;;;;;;;5094807;28;19910;-77
2021/01/09 11:05:41;;;;;;;;;;;;;;;;;;5094955;28;19939;-77
2021/01/09 11:08:07;;;;;;;;;;;;;;;;;;5090830;28;19904;-77
2021/01/09 11:10:33;;;;;;;;;;;;;;;;;;5093522;28;19947;-76
2021/01/09 11:12:59;;;;;;;;;;;;;;;;;;5093840;28;19908;-77
2021/01/09 11:15:25;;;;;;;;;;;;;;;;;;5093653;28;20415;-77
2021/01/09 11:17:51;;;;;;;;;;;;;;;;;;5093666;28;19934;-77
2021/01/09 11:20:17;;;;;;;;;;;;;;;;;;5093594;28;19907;-76
2021/01/09 11:22:43;;;;;;;;;;;;;;;;;;5093248;28;20050;-76
2021/01/09 11:25:09;;;;;;;;;;;;;;;;;;5093625;28;19908;-77
2021/01/09 11:27:35;;;;;;;;;;;;;;;;;;5093465;28;19904;-77
2021/01/09 11:30:00;;;;;;;;;;;;;;;;;;5093020;28;19931;-77
2021/01/09 11:32:26;;;;;;;;;;;;;;;;;;5092748;28;19911;-77
2021/01/09 11:34:53;;;;;;;;;;;;;;;;;;5093033;28;19904;-77
2021/01/09 11:37:18;;;;;;;;;;;;;;;;;;5092884;28;20019;-78
2021/01/09 11:39:44;;;;;;;;;;;;;;;;;;5093308;28;19999;-77
2021/01/09 11:42:10;;;;;;;;;;;;;;;;;;5092992;28;19922;-77
2021/01/09 11:44:36;;;;;;;;;;;;;;;;;;5093166;28;19910;-77
2021/01/09 11:47:02;;;;;;;;;;;;;;;;;;5093012;28;19908;-77
2021/01/09 11:49:28;;;;;;;;;;;;;;;;;;5093114;28;19994;-77
2021/01/09 11:51:55;;;;;;;;;;;;;;;;;;5092903;28;19908;-78
2021/01/09 11:54:21;;;;;;;;;;;;;;;;;;5092736;28;19904;-77
2021/01/09 11:56:46;;;;;;;;;;;;;;;;;;5092900;28;19912;-77
2021/01/09 11:59:12;;;;;;;;;;;;;;;;;;5092864;28;19907;-77
2021/01/09 12:01:38;;;;;;;;;;;;;;;;;;5093151;28;19911;-78
2021/01/09 12:04:04;;;;;;;;;;;;;;;;;;5092903;28;19908;-77
2021/01/09 12:06:30;;;;;;;;;;;;;;;;;;5092617;28;19904;-78
2021/01/09 12:08:56;;;;;;;;;;;;;;;;;;5092164;28;19923;-77
2021/01/09 12:11:22;;;;;;;;;;;;;;;;;;5092881;28;19900;-79
2021/01/09 12:13:48;;;;;;;;;;;;;;;;;;5092802;28;19904;-77
2021/01/09 12:16:14;;;;;;;;;;;;;;;;;;5092518;28;20295;-77
2021/01/09 12:18:40;;;;;;;;;;;;;;;;;;5093198;28;19912;-76
2021/01/09 12:21:06;;;;;;;;;;;;;;;;;;5093601;28;19908;-76
2021/01/09 12:23:32;;;;;;;;;;;;;;;;;;5093725;28;19908;-77
2021/01/09 12:25:58;;;;;;;;;;;;;;;;;;5093800;28;19904;-76
2021/01/09 12:28:24;;;;;;;;;;;;;;;;;;5093737;28;19987;-77
2021/01/09 12:30:50;;;;;;;;;;;;;;;;;;5093514;28;19904;-78
2021/01/09 12:33:16;;;;;;;;;;;;;;;;;;5091856;28;20244;-76
2021/01/09 12:35:42;;;;;;;;;;;;;;;;;;5092451;28;19908;-77
2021/01/09 12:38:08;;;;;;;;;;;;;;;;;;5092690;28;19964;-76
2021/01/09 12:40:35;;;;;;;;;;;;;;;;;;5092393;28;19911;-77
2021/01/09 12:43:01;;;;;;;;;;;;;;;;;;5092715;28;19927;-77
2021/01/09 12:45:27;;;;;;;;;;;;;;;;;;5095383;28;20267;-77
2021/01/09 12:47:53;;;;;;;;;;;;;;;;;;5096781;28;19904;-77
2021/01/09 12:50:19;;;;;;;;;;;;;;;;;;5095880;28;20430;-76
2021/01/09 12:52:45;;;;;;;;;;;;;;;;;;5096457;28;20362;-78
2021/01/09 12:55:11;;;;;;;;;;;;;;;;;;5096562;28;19915;-77
2021/01/09 12:57:37;;;;;;;;;;;;;;;;;;5096063;28;19969;-77
2021/01/09 13:00:03;;;;;;;;;;;;;;;;;;5096590;28;19908;-77
2021/01/09 13:02:29;;;;;;;;;;;;;;;;;;5096250;28;19904;-77
2021/01/09 13:04:55;;;;;;;;;;;;;;;;;;5095981;28;19908;-77
2021/01/09 13:07:21;;;;;;;;;;;;;;;;;;5096215;28;19969;-78
2021/01/09 13:09:47;;;;;;;;;;;;;;;;;;5096004;28;19955;-77
2021/01/09 13:12:13;;;;;;;;;;;;;;;;;;5096121;28;20306;-77
2021/01/09 13:14:39;;;;;;;;;;;;;;;;;;5095920;28;20466;-77
2021/01/09 13:17:10;;;;;;;;;;;;;;;;;;5092330;28;19920;-78
2021/01/09 13:19:36;;;;;;;;;;;;;;;;;;5087495;28;19951;-78
2021/01/09 13:22:02;;;;;;;;;;;;;;;;;;5084889;28;19919;-77
2021/01/09 13:24:29;;;;;;;;;;;;;;;;;;5092563;28;19912;-77
2021/01/09 13:26:57;;;;;;;;;;;;;;;;;;5090375;28;20322;-76
2021/01/09 13:29:23;;;;;;;;;;;;;;;;;;5083750;28;19908;-76
2021/01/09 13:31:49;;;;;;;;;;;;;;;;;;5092561;28;19935;-77
2021/01/09 13:34:15;;;;;;;;;;;;;;;;;;5095289;28;20002;-76
2021/01/09 13:36:41;;;;;;;;;;;;;;;;;;5095368;28;19914;-75
2021/01/09 13:39:06;;;;;;;;;;;;;;;;;;5095807;28;19904;-77
2021/01/09 13:41:32;;;;;;;;;;;;;;;;;;5095754;28;20260;-76
2021/01/09 13:43:58;;;;;;;;;;;;;;;;;;5095592;28;19908;-77
2021/01/09 13:46:24;;;;;;;;;;;;;;;;;;5095278;28;19935;-76
2021/01/09 13:48:50;;;;;;;;;;;;;;;;;;5094936;28;20002;-76
2021/01/09 13:51:16;;;;;;;;;;;;;;;;;;5095472;28;19951;-76
2021/01/09 13:53:42;;;;;;;;;;;;;;;;;;5095229;28;19911;-75
2021/01/09 13:56:08;;;;;;;;;;;;;;;;;;5094055;28;19904;-76
2021/01/09 13:58:34;;;;;;;;;;;;;;;;;;5087344;28;19989;-76
2021/01/09 14:01:00;;;;;;;;;;;;;;;;;;5086829;28;19908;-77
2021/01/09 14:03:26;;;;;;;;;;;;;;;;;;5089440;28;19914;-77
2021/01/09 14:05:52;;;;;;;;;;;;;;;;;;5098890;28;19951;-77
2021/01/09 14:08:18;;;;;;;;;;;;;;;;;;5087414;28;19915;-78
2021/01/09 14:10:44;;;;;;;;;;;;;;;;;;5086968;28;19916;-76
2021/01/09 14:13:10;;;;;;;;;;;;;;;;;;5094527;28;19914;-77
2021/01/09 14:15:36;;;;;;;;;;;;;;;;;;5084390;28;19905;-77
2021/01/09 14:18:02;;;;;;;;;;;;;;;;;;5079377;28;19916;-77
2021/01/09 14:20:28;;;;;;;;;;;;;;;;;;5095978;28;20359;-76
2021/01/09 14:22:54;;;;;;;;;;;;;;;;;;5095726;28;20306;-76
2021/01/09 14:25:20;;;;;;;;;;;;;;;;;;5095643;28;19918;-76
2021/01/09 14:27:45;;;;;;;;;;;;;;;;;;5095931;28;19904;-77
2021/01/09 14:30:11;;;;;;;;;;;;;;;;;;5095898;28;20266;-77
2021/01/09 14:32:37;;;;;;;;;;;;;;;;;;5095855;28;19904;-76
2021/01/09 14:35:03;;;;;;;;;;;;;;;;;;5095671;28;19944;-78
2021/01/09 14:37:31;;;;;;;;;;;;;;;;;;5095708;28;19911;-77
2021/01/09 14:39:57;;;;;;;;;;;;;;;;;;5094327;28;20278;-77
2021/01/09 14:42:23;;;;;;;;;;;;;;;;;;5095683;28;19904;-77
2021/01/09 14:44:49;;;;;;;;;;;;;;;;;;5095702;28;20382;-77
2021/01/09 14:47:15;;;;;;;;;;;;;;;;;;5095296;28;20396;-76
2021/01/09 14:49:41;;;;;;;;;;;;;;;;;;5095498;28;20262;-76
2021/01/09 14:52:12;;;;;;;;;;;;;;;;;;5095374;28;19904;-76
2021/01/09 14:54:38;;;;;;;;;;;;;;;;;;5095557;28;20252;-76
2021/01/09 14:57:04;;;;;;;;;;;;;;;;;;5095532;28;19933;-76
2021/01/09 14:59:30;;;;;;;;;;;;;;;;;;5095315;28;20363;-77
2021/01/09 15:01:56;;;;;;;;;;;;;;;;;;5095290;28;20378;-75
2021/01/09 15:04:22;;;;;;;;;;;;;;;;;;5095210;28;19912;-75
2021/01/09 15:06:48;;;;;;;;;;;;;;;;;;5094943;28;20414;-77
2021/01/09 15:09:14;;;;;;;;;;;;;;;;;;5095136;28;19916;-77
2021/01/09 15:11:40;;;;;;;;;;;;;;;;;;5094060;28;19908;-77
2021/01/09 15:14:06;;;;;;;;;;;;;;;;;;5093833;28;19908;-77
2021/01/09 15:16:32;;;;;;;;;;;;;;;;;;5094887;28;19911;-77
2021/01/09 15:21:27;;;;;;;;;;;;;;;;;;5094837;28;19989;-76
2021/01/09 15:23:52;;;;;;;;;;;;;;;;;;5094717;28;19912;-78
2021/01/09 15:26:18;;;;;;;;;;;;;;;;;;5094886;28;19911;-77
2021/01/09 15:28:44;;;;;;;;;;;;;;;;;;5094897;28;19908;-76
2021/01/09 15:31:10;;;;;;;;;;;;;;;;;;5094548;28;19932;-77
2021/01/09 15:33:36;;;;;;;;;;;;;;;;;;5094701;28;19905;-77
2021/01/09 15:36:02;;;;;;;;;;;;;;;;;;5093352;28;19907;-75
2021/01/09 15:38:28;;;;;;;;;;;;;;;;;;5094455;28;19912;-75
2021/01/09 15:40:54;;;;;;;;;;;;;;;;;;5094471;28;19998;-78
2021/01/09 15:43:20;;;;;;;;;;;;;;;;;;5094603;28;19904;-78
2021/01/09 15:45:46;;;;;;;;;;;;;;;;;;5093785;28;19914;-78
2021/01/09 15:48:12;;;;;;;;;;;;;;;;;;5093608;28;19908;-76
2021/01/09 15:50:38;;;;;;;;;;;;;;;;;;5094243;28;19907;-76
2021/01/09 15:53:04;;;;;;;;;;;;;;;;;;5094302;28;19904;-77
2021/01/09 15:55:30;;;;;;;;;;;;;;;;;;5092479;28;19952;-77
2021/01/09 15:57:56;;;;;;;;;;;;;;;;;;5093618;28;19916;-78
2021/01/09 16:00:21;;;;;;;;;;;;;;;;;;5093269;28;20003;-77
2021/01/09 16:02:47;;;;;;;;;;;;;;;;;;5093950;28;19958;-78
2021/01/09 16:05:13;;;;;;;;;;;;;;;;;;5094160;28;19905;-78
2021/01/09 16:07:39;;;;;;;;;;;;;;;;;;5094291;28;19955;-77
2021/01/09 16:10:05;;;;;;;;;;;;;;;;;;5093933;28;20439;-75
2021/01/09 16:12:31;;;;;;;;;;;;;;;;;;5093704;28;20244;-76
2021/01/09 16:14:57;;;;;;;;;;;;;;;;;;5091974;28;20283;-77
2021/01/09 16:17:23;;;;;;;;;;;;;;;;;;5093713;28;19912;-76
2021/01/09 16:19:49;;;;;;;;;;;;;;;;;;5093428;28;19911;-77
2021/01/09 16:22:15;;;;;;;;;;;;;;;;;;5093381;28;19908;-78
2021/01/09 16:24:41;;;;;;;;;;;;;;;;;;5093850;28;19919;-78
2021/01/09 16:27:10;;;;;;;;;;;;;;;;;;5093849;28;20270;-77
2021/01/09 16:29:36;;;;;;;;;;;;;;;;;;5094403;28;19904;-77
2021/01/09 16:32:02;;;;;;;;;;;;;;;;;;5093254;28;19918;-76
2021/01/09 16:34:28;;;;;;;;;;;;;;;;;;5093628;28;19995;-77
2021/01/09 16:36:54;;;;;;;;;;;;;;;;;;5093755;28;20351;-77
2021/01/09 16:39:20;;;;;;;;;;;;;;;;;;5093773;28;19943;-76
2021/01/09 16:41:46;;;;;;;;;;;;;;;;;;5093793;28;19949;-77